sensor_id;sensor_type;location;lat;lon;timestamp;P1;durP1;ratioP1;P2;durP2;ratioP2
9438;SDS011;5176;42.622;25.386;2023-12-20T00:01:03;21.90;;;15.80;;
9438;SDS011;5176;42.622;25.386;2023-12-20T00:03:30;22.57;;;15.37;;
9438;SDS011;5176;42.622;25.386;2023-12-20T00:05:58;21.30;;;14.50;;
9438;SDS011;5176;42.622;25.386;2023-12-20T00:08:25;20.33;;;14.83;;
9438;SDS011;5176;42.622;25.386;2023-12-20T00:10:52;19.43;;;13.53;;
9438;SDS011;5176;42.622;25.386;2023-12-20T00:13:19;21.77;;;14.60;;
9438;SDS011;5176;42.622;25.386;2023-12-20T00:15:48;19.77;;;14.23;;
9438;SDS011;5176;42.622;25.386;2023-12-20T00:18:15;21.07;;;12.93;;
9438;SDS011;5176;42.622;25.386;2023-12-20T00:20:42;18.50;;;11.87;;
9438;SDS011;5176;42.622;25.386;2023-12-20T00:23:09;14.70;;;9.97;;
9438;SDS011;5176;42.622;25.386;2023-12-20T00:25:37;14.57;;;9.50;;
9438;SDS011;5176;42.622;25.386;2023-12-20T00:28:04;11.97;;;8.67;;
9438;SDS011;5176;42.622;25.386;2023-12-20T00:30:31;13.37;;;8.93;;
9438;SDS011;5176;42.622;25.386;2023-12-20T00:33:00;14.10;;;9.60;;
9438;SDS011;5176;42.622;25.386;2023-12-20T00:35:27;12.77;;;9.90;;
9438;SDS011;5176;42.622;25.386;2023-12-20T00:37:55;16.87;;;10.87;;
9438;SDS011;5176;42.622;25.386;2023-12-20T00:40:22;13.77;;;9.40;;
9438;SDS011;5176;42.622;25.386;2023-12-20T00:42:49;12.93;;;9.20;;
9438;SDS011;5176;42.622;25.386;2023-12-20T00:45:17;14.37;;;9.10;;
9438;SDS011;5176;42.622;25.386;2023-12-20T00:47:45;13.63;;;9.53;;
9438;SDS011;5176;42.622;25.386;2023-12-20T00:50:14;16.30;;;9.57;;
9438;SDS011;5176;42.622;25.386;2023-12-20T00:52:41;17.67;;;10.77;;
9438;SDS011;5176;42.622;25.386;2023-12-20T00:55:09;15.17;;;10.17;;
9438;SDS011;5176;42.622;25.386;2023-12-20T00:57:36;12.87;;;10.30;;
9438;SDS011;5176;42.622;25.386;2023-12-20T01:00:04;15.30;;;10.83;;
9438;SDS011;5176;42.622;25.386;2023-12-20T01:02:35;18.10;;;13.00;;
9438;SDS011;5176;42.622;25.386;2023-12-20T01:05:02;18.00;;;13.13;;
9438;SDS011;5176;42.622;25.386;2023-12-20T01:07:34;19.10;;;13.47;;
9438;SDS011;5176;42.622;25.386;2023-12-20T01:10:01;17.50;;;12.80;;
9438;SDS011;5176;42.622;25.386;2023-12-20T01:12:29;15.70;;;12.17;;
9438;SDS011;5176;42.622;25.386;2023-12-20T01:14:57;19.80;;;13.10;;
9438;SDS011;5176;42.622;25.386;2023-12-20T01:17:24;17.33;;;12.17;;
9438;SDS011;5176;42.622;25.386;2023-12-20T01:19:52;16.20;;;12.07;;
9438;SDS011;5176;42.622;25.386;2023-12-20T01:22:19;17.17;;;12.30;;
9438;SDS011;5176;42.622;25.386;2023-12-20T01:24:48;15.53;;;11.40;;
9438;SDS011;5176;42.622;25.386;2023-12-20T01:27:15;17.77;;;12.37;;
9438;SDS011;5176;42.622;25.386;2023-12-20T01:29:41;19.73;;;12.37;;
9438;SDS011;5176;42.622;25.386;2023-12-20T01:32:09;19.53;;;11.87;;
9438;SDS011;5176;42.622;25.386;2023-12-20T01:34:36;17.10;;;12.60;;
9438;SDS011;5176;42.622;25.386;2023-12-20T01:37:04;15.07;;;11.10;;
9438;SDS011;5176;42.622;25.386;2023-12-20T01:39:31;16.43;;;11.17;;
9438;SDS011;5176;42.622;25.386;2023-12-20T01:42:00;15.67;;;9.57;;
9438;SDS011;5176;42.622;25.386;2023-12-20T01:44:28;16.17;;;10.07;;
9438;SDS011;5176;42.622;25.386;2023-12-20T01:46:55;15.03;;;10.47;;
9438;SDS011;5176;42.622;25.386;2023-12-20T01:49:23;12.47;;;10.13;;
9438;SDS011;5176;42.622;25.386;2023-12-20T01:51:51;16.90;;;11.70;;
9438;SDS011;5176;42.622;25.386;2023-12-20T01:54:19;16.67;;;11.80;;
9438;SDS011;5176;42.622;25.386;2023-12-20T01:56:48;19.23;;;12.13;;
9438;SDS011;5176;42.622;25.386;2023-12-20T01:59:19;15.30;;;11.40;;
9438;SDS011;5176;42.622;25.386;2023-12-20T02:01:47;16.50;;;10.93;;
9438;SDS011;5176;42.622;25.386;2023-12-20T02:04:14;13.60;;;10.43;;
9438;SDS011;5176;42.622;25.386;2023-12-20T02:06:43;12.10;;;9.70;;
9438;SDS011;5176;42.622;25.386;2023-12-20T02:09:13;14.10;;;10.17;;
9438;SDS011;5176;42.622;25.386;2023-12-20T02:11:41;14.67;;;10.40;;
9438;SDS011;5176;42.622;25.386;2023-12-20T02:14:10;12.67;;;9.90;;
9438;SDS011;5176;42.622;25.386;2023-12-20T02:16:39;16.87;;;10.27;;
9438;SDS011;5176;42.622;25.386;2023-12-20T02:19:09;12.33;;;8.97;;
9438;SDS011;5176;42.622;25.386;2023-12-20T02:21:42;13.47;;;9.40;;
9438;SDS011;5176;42.622;25.386;2023-12-20T02:24:10;12.50;;;8.67;;
9438;SDS011;5176;42.622;25.386;2023-12-20T02:26:37;13.63;;;8.70;;
9438;SDS011;5176;42.622;25.386;2023-12-20T02:29:05;12.23;;;8.17;;
9438;SDS011;5176;42.622;25.386;2023-12-20T02:31:33;11.00;;;8.00;;
9438;SDS011;5176;42.622;25.386;2023-12-20T02:34:00;12.57;;;7.80;;
9438;SDS011;5176;42.622;25.386;2023-12-20T02:36:28;14.30;;;10.03;;
9438;SDS011;5176;42.622;25.386;2023-12-20T02:38:56;14.17;;;9.30;;
9438;SDS011;5176;42.622;25.386;2023-12-20T02:41:24;17.53;;;9.13;;
9438;SDS011;5176;42.622;25.386;2023-12-20T02:43:51;14.30;;;8.90;;
9438;SDS011;5176;42.622;25.386;2023-12-20T02:46:19;13.13;;;8.87;;
9438;SDS011;5176;42.622;25.386;2023-12-20T02:48:47;12.80;;;8.90;;
9438;SDS011;5176;42.622;25.386;2023-12-20T02:51:14;12.43;;;9.03;;
9438;SDS011;5176;42.622;25.386;2023-12-20T02:53:41;14.80;;;10.00;;
9438;SDS011;5176;42.622;25.386;2023-12-20T02:56:10;13.37;;;9.33;;
9438;SDS011;5176;42.622;25.386;2023-12-20T02:58:39;13.67;;;9.93;;
9438;SDS011;5176;42.622;25.386;2023-12-20T03:01:07;12.97;;;10.10;;
9438;SDS011;5176;42.622;25.386;2023-12-20T03:03:35;11.57;;;9.23;;
9438;SDS011;5176;42.622;25.386;2023-12-20T03:06:03;11.97;;;9.60;;
9438;SDS011;5176;42.622;25.386;2023-12-20T03:08:30;16.63;;;9.93;;
9438;SDS011;5176;42.622;25.386;2023-12-20T03:10:59;11.03;;;8.50;;
9438;SDS011;5176;42.622;25.386;2023-12-20T03:13:28;12.40;;;9.43;;
9438;SDS011;5176;42.622;25.386;2023-12-20T03:15:55;12.07;;;8.87;;
9438;SDS011;5176;42.622;25.386;2023-12-20T03:18:23;13.67;;;9.83;;
9438;SDS011;5176;42.622;25.386;2023-12-20T03:20:50;14.27;;;10.40;;
9438;SDS011;5176;42.622;25.386;2023-12-20T03:23:18;15.37;;;11.47;;
9438;SDS011;5176;42.622;25.386;2023-12-20T03:25:45;15.67;;;11.63;;
9438;SDS011;5176;42.622;25.386;2023-12-20T03:28:14;19.27;;;13.00;;
9438;SDS011;5176;42.622;25.386;2023-12-20T03:30:43;27.87;;;14.70;;
9438;SDS011;5176;42.622;25.386;2023-12-20T03:33:11;16.57;;;11.33;;
9438;SDS011;5176;42.622;25.386;2023-12-20T03:35:38;13.90;;;9.97;;
9438;SDS011;5176;42.622;25.386;2023-12-20T03:38:06;13.27;;;9.27;;
9438;SDS011;5176;42.622;25.386;2023-12-20T03:40:33;13.63;;;10.07;;
9438;SDS011;5176;42.622;25.386;2023-12-20T03:43:00;16.47;;;10.50;;
9438;SDS011;5176;42.622;25.386;2023-12-20T03:45:28;12.93;;;9.30;;
9438;SDS011;5176;42.622;25.386;2023-12-20T03:47:56;11.73;;;8.67;;
9438;SDS011;5176;42.622;25.386;2023-12-20T03:50:24;11.27;;;7.67;;
9438;SDS011;5176;42.622;25.386;2023-12-20T03:52:52;12.70;;;8.57;;
9438;SDS011;5176;42.622;25.386;2023-12-20T03:55:19;11.10;;;8.37;;
9438;SDS011;5176;42.622;25.386;2023-12-20T03:57:46;15.87;;;8.23;;
9438;SDS011;5176;42.622;25.386;2023-12-20T04:00:14;12.03;;;8.83;;
9438;SDS011;5176;42.622;25.386;2023-12-20T04:02:42;22.63;;;12.70;;
9438;SDS011;5176;42.622;25.386;2023-12-20T04:05:11;23.97;;;11.70;;
9438;SDS011;5176;42.622;25.386;2023-12-20T04:07:39;14.97;;;8.97;;
9438;SDS011;5176;42.622;25.386;2023-12-20T04:10:07;13.10;;;8.70;;
9438;SDS011;5176;42.622;25.386;2023-12-20T04:12:35;11.07;;;7.20;;
9438;SDS011;5176;42.622;25.386;2023-12-20T04:15:02;10.40;;;7.20;;
9438;SDS011;5176;42.622;25.386;2023-12-20T04:17:34;10.10;;;7.53;;
9438;SDS011;5176;42.622;25.386;2023-12-20T04:20:02;10.37;;;6.73;;
9438;SDS011;5176;42.622;25.386;2023-12-20T04:22:32;15.53;;;8.23;;
9438;SDS011;5176;42.622;25.386;2023-12-20T04:24:59;9.77;;;6.83;;
9438;SDS011;5176;42.622;25.386;2023-12-20T04:27:27;9.43;;;7.03;;
9438;SDS011;5176;42.622;25.386;2023-12-20T04:29:55;12.30;;;7.23;;
9438;SDS011;5176;42.622;25.386;2023-12-20T04:32:22;8.10;;;6.13;;
9438;SDS011;5176;42.622;25.386;2023-12-20T04:34:49;9.07;;;6.50;;
9438;SDS011;5176;42.622;25.386;2023-12-20T04:37:17;7.03;;;5.77;;
9438;SDS011;5176;42.622;25.386;2023-12-20T04:39:46;8.10;;;6.10;;
9438;SDS011;5176;42.622;25.386;2023-12-20T04:42:14;7.63;;;6.33;;
9438;SDS011;5176;42.622;25.386;2023-12-20T04:44:41;11.10;;;7.33;;
9438;SDS011;5176;42.622;25.386;2023-12-20T04:47:09;10.00;;;6.70;;
9438;SDS011;5176;42.622;25.386;2023-12-20T04:49:36;7.93;;;6.70;;
9438;SDS011;5176;42.622;25.386;2023-12-20T04:52:04;8.97;;;6.50;;
9438;SDS011;5176;42.622;25.386;2023-12-20T04:54:31;10.17;;;7.17;;
9438;SDS011;5176;42.622;25.386;2023-12-20T04:57:00;10.47;;;7.30;;
9438;SDS011;5176;42.622;25.386;2023-12-20T04:59:27;9.30;;;7.03;;
9438;SDS011;5176;42.622;25.386;2023-12-20T05:01:54;11.53;;;8.00;;
9438;SDS011;5176;42.622;25.386;2023-12-20T05:04:22;45.97;;;25.70;;
9438;SDS011;5176;42.622;25.386;2023-12-20T05:06:50;59.37;;;34.17;;
9438;SDS011;5176;42.622;25.386;2023-12-20T05:09:17;35.57;;;17.60;;
9438;SDS011;5176;42.622;25.386;2023-12-20T05:11:44;25.83;;;14.33;;
9438;SDS011;5176;42.622;25.386;2023-12-20T05:14:13;26.13;;;13.87;;
9438;SDS011;5176;42.622;25.386;2023-12-20T05:16:40;13.70;;;10.47;;
9438;SDS011;5176;42.622;25.386;2023-12-20T05:19:08;15.20;;;10.70;;
9438;SDS011;5176;42.622;25.386;2023-12-20T05:21:35;18.87;;;13.03;;
9438;SDS011;5176;42.622;25.386;2023-12-20T05:24:02;20.17;;;12.73;;
9438;SDS011;5176;42.622;25.386;2023-12-20T05:26:30;15.30;;;10.30;;
9438;SDS011;5176;42.622;25.386;2023-12-20T05:28:57;14.57;;;10.27;;
9438;SDS011;5176;42.622;25.386;2023-12-20T05:31:26;15.67;;;10.63;;
9438;SDS011;5176;42.622;25.386;2023-12-20T05:33:53;14.17;;;9.80;;
9438;SDS011;5176;42.622;25.386;2023-12-20T05:36:21;13.93;;;9.37;;
9438;SDS011;5176;42.622;25.386;2023-12-20T05:38:48;11.50;;;9.00;;
9438;SDS011;5176;42.622;25.386;2023-12-20T05:41:16;12.97;;;9.13;;
9438;SDS011;5176;42.622;25.386;2023-12-20T05:43:43;13.27;;;9.67;;
9438;SDS011;5176;42.622;25.386;2023-12-20T05:46:10;17.37;;;9.17;;
9438;SDS011;5176;42.622;25.386;2023-12-20T05:48:39;16.07;;;8.67;;
9438;SDS011;5176;42.622;25.386;2023-12-20T05:51:06;13.27;;;7.73;;
9438;SDS011;5176;42.622;25.386;2023-12-20T05:53:34;19.73;;;9.60;;
9438;SDS011;5176;42.622;25.386;2023-12-20T05:56:01;15.23;;;9.00;;
9438;SDS011;5176;42.622;25.386;2023-12-20T05:58:29;13.63;;;9.73;;
9438;SDS011;5176;42.622;25.386;2023-12-20T06:00:56;17.30;;;11.87;;
9438;SDS011;5176;42.622;25.386;2023-12-20T06:03:23;21.47;;;11.73;;
9438;SDS011;5176;42.622;25.386;2023-12-20T06:05:52;16.80;;;11.67;;
9438;SDS011;5176;42.622;25.386;2023-12-20T06:08:19;19.10;;;11.93;;
9438;SDS011;5176;42.622;25.386;2023-12-20T06:10:46;21.67;;;12.63;;
9438;SDS011;5176;42.622;25.386;2023-12-20T06:13:14;19.80;;;12.23;;
9438;SDS011;5176;42.622;25.386;2023-12-20T06:15:41;25.03;;;13.53;;
9438;SDS011;5176;42.622;25.386;2023-12-20T06:18:08;24.43;;;14.83;;
9438;SDS011;5176;42.622;25.386;2023-12-20T06:20:35;18.73;;;13.50;;
9438;SDS011;5176;42.622;25.386;2023-12-20T06:23:04;19.80;;;12.60;;
9438;SDS011;5176;42.622;25.386;2023-12-20T06:25:32;19.10;;;12.33;;
9438;SDS011;5176;42.622;25.386;2023-12-20T06:27:59;20.57;;;14.30;;
9438;SDS011;5176;42.622;25.386;2023-12-20T06:30:26;24.00;;;14.33;;
9438;SDS011;5176;42.622;25.386;2023-12-20T06:32:53;31.23;;;17.90;;
9438;SDS011;5176;42.622;25.386;2023-12-20T06:35:22;27.53;;;18.30;;
9438;SDS011;5176;42.622;25.386;2023-12-20T06:37:50;22.57;;;15.67;;
9438;SDS011;5176;42.622;25.386;2023-12-20T06:40:19;32.13;;;20.63;;
9438;SDS011;5176;42.622;25.386;2023-12-20T06:42:46;30.80;;;21.23;;
9438;SDS011;5176;42.622;25.386;2023-12-20T06:45:14;38.43;;;25.00;;
9438;SDS011;5176;42.622;25.386;2023-12-20T06:47:41;35.27;;;22.03;;
9438;SDS011;5176;42.622;25.386;2023-12-20T06:50:09;29.70;;;20.40;;
9438;SDS011;5176;42.622;25.386;2023-12-20T06:52:36;24.27;;;16.47;;
9438;SDS011;5176;42.622;25.386;2023-12-20T06:55:04;25.53;;;16.77;;
9438;SDS011;5176;42.622;25.386;2023-12-20T06:57:33;25.30;;;17.13;;
9438;SDS011;5176;42.622;25.386;2023-12-20T07:00:01;22.67;;;15.83;;
9438;SDS011;5176;42.622;25.386;2023-12-20T07:02:29;23.43;;;15.00;;
9438;SDS011;5176;42.622;25.386;2023-12-20T07:04:57;18.40;;;14.27;;
9438;SDS011;5176;42.622;25.386;2023-12-20T07:07:24;18.40;;;13.73;;
9438;SDS011;5176;42.622;25.386;2023-12-20T07:09:51;25.73;;;16.37;;
9438;SDS011;5176;42.622;25.386;2023-12-20T07:12:19;22.10;;;15.83;;
9438;SDS011;5176;42.622;25.386;2023-12-20T07:14:47;17.87;;;13.60;;
9438;SDS011;5176;42.622;25.386;2023-12-20T07:17:14;18.37;;;12.37;;
9438;SDS011;5176;42.622;25.386;2023-12-20T07:19:42;16.60;;;11.67;;
9438;SDS011;5176;42.622;25.386;2023-12-20T07:22:09;20.03;;;11.43;;
9438;SDS011;5176;42.622;25.386;2023-12-20T07:24:36;12.37;;;9.87;;
9438;SDS011;5176;42.622;25.386;2023-12-20T07:27:04;11.37;;;9.17;;
9438;SDS011;5176;42.622;25.386;2023-12-20T07:29:31;12.20;;;9.33;;
9438;SDS011;5176;42.622;25.386;2023-12-20T07:32:00;14.30;;;9.63;;
9438;SDS011;5176;42.622;25.386;2023-12-20T07:34:27;21.70;;;14.43;;
9438;SDS011;5176;42.622;25.386;2023-12-20T07:36:55;25.97;;;17.33;;
9438;SDS011;5176;42.622;25.386;2023-12-20T07:39:22;11.53;;;8.53;;
9438;SDS011;5176;42.622;25.386;2023-12-20T07:41:49;12.93;;;8.87;;
9438;SDS011;5176;42.622;25.386;2023-12-20T07:44:16;11.07;;;8.27;;
9438;SDS011;5176;42.622;25.386;2023-12-20T07:46:44;13.77;;;9.73;;
9438;SDS011;5176;42.622;25.386;2023-12-20T07:49:12;10.33;;;7.53;;
9438;SDS011;5176;42.622;25.386;2023-12-20T07:51:40;9.17;;;7.17;;
9438;SDS011;5176;42.622;25.386;2023-12-20T07:54:07;12.00;;;8.57;;
9438;SDS011;5176;42.622;25.386;2023-12-20T07:56:34;7.87;;;6.67;;
9438;SDS011;5176;42.622;25.386;2023-12-20T07:59:01;15.57;;;9.00;;
9438;SDS011;5176;42.622;25.386;2023-12-20T08:01:29;12.10;;;8.83;;
9438;SDS011;5176;42.622;25.386;2023-12-20T08:03:56;15.07;;;11.17;;
9438;SDS011;5176;42.622;25.386;2023-12-20T08:06:25;16.90;;;9.20;;
9438;SDS011;5176;42.622;25.386;2023-12-20T08:08:52;11.20;;;7.60;;
9438;SDS011;5176;42.622;25.386;2023-12-20T08:11:19;14.87;;;9.67;;
9438;SDS011;5176;42.622;25.386;2023-12-20T08:13:46;13.90;;;10.23;;
9438;SDS011;5176;42.622;25.386;2023-12-20T08:16:14;15.07;;;10.97;;
9438;SDS011;5176;42.622;25.386;2023-12-20T08:18:43;9.93;;;8.33;;
9438;SDS011;5176;42.622;25.386;2023-12-20T08:21:10;12.33;;;8.80;;
9438;SDS011;5176;42.622;25.386;2023-12-20T08:23:39;13.73;;;11.00;;
9438;SDS011;5176;42.622;25.386;2023-12-20T08:26:06;15.10;;;11.77;;
9438;SDS011;5176;42.622;25.386;2023-12-20T08:28:33;14.00;;;10.80;;
9438;SDS011;5176;42.622;25.386;2023-12-20T08:31:01;12.03;;;10.60;;
9438;SDS011;5176;42.622;25.386;2023-12-20T08:33:28;14.47;;;11.23;;
9438;SDS011;5176;42.622;25.386;2023-12-20T08:35:55;14.47;;;11.13;;
9438;SDS011;5176;42.622;25.386;2023-12-20T08:38:23;13.63;;;11.33;;
9438;SDS011;5176;42.622;25.386;2023-12-20T08:40:51;17.67;;;12.20;;
9438;SDS011;5176;42.622;25.386;2023-12-20T08:43:19;15.43;;;10.97;;
9438;SDS011;5176;42.622;25.386;2023-12-20T08:45:46;13.90;;;9.97;;
9438;SDS011;5176;42.622;25.386;2023-12-20T08:48:13;11.33;;;7.60;;
9438;SDS011;5176;42.622;25.386;2023-12-20T08:50:40;10.53;;;7.00;;
9438;SDS011;5176;42.622;25.386;2023-12-20T08:53:08;8.77;;;6.93;;
9438;SDS011;5176;42.622;25.386;2023-12-20T08:55:35;6.67;;;5.73;;
9438;SDS011;5176;42.622;25.386;2023-12-20T08:58:04;14.83;;;8.57;;
9438;SDS011;5176;42.622;25.386;2023-12-20T09:00:33;10.50;;;7.33;;
9438;SDS011;5176;42.622;25.386;2023-12-20T09:03:00;9.83;;;6.67;;
9438;SDS011;5176;42.622;25.386;2023-12-20T09:05:28;8.83;;;5.97;;
9438;SDS011;5176;42.622;25.386;2023-12-20T09:07:54;7.60;;;5.70;;
9438;SDS011;5176;42.622;25.386;2023-12-20T09:10:21;6.00;;;5.07;;
9438;SDS011;5176;42.622;25.386;2023-12-20T09:12:49;6.83;;;5.23;;
9438;SDS011;5176;42.622;25.386;2023-12-20T09:15:18;6.70;;;5.77;;
9438;SDS011;5176;42.622;25.386;2023-12-20T09:17:45;9.53;;;6.43;;
9438;SDS011;5176;42.622;25.386;2023-12-20T09:20:13;9.83;;;6.43;;
9438;SDS011;5176;42.622;25.386;2023-12-20T09:22:40;8.37;;;6.13;;
9438;SDS011;5176;42.622;25.386;2023-12-20T09:25:09;8.43;;;6.30;;
9438;SDS011;5176;42.622;25.386;2023-12-20T09:27:38;8.17;;;6.17;;
9438;SDS011;5176;42.622;25.386;2023-12-20T09:30:05;7.57;;;6.00;;
9438;SDS011;5176;42.622;25.386;2023-12-20T09:32:35;12.37;;;7.93;;
9438;SDS011;5176;42.622;25.386;2023-12-20T09:35:02;9.67;;;6.20;;
9438;SDS011;5176;42.622;25.386;2023-12-20T09:37:31;12.50;;;6.60;;
9438;SDS011;5176;42.622;25.386;2023-12-20T09:39:58;7.33;;;5.13;;
9438;SDS011;5176;42.622;25.386;2023-12-20T09:42:29;9.37;;;7.00;;
9438;SDS011;5176;42.622;25.386;2023-12-20T09:45:05;11.10;;;7.87;;
9438;SDS011;5176;42.622;25.386;2023-12-20T09:47:36;7.03;;;5.40;;
9438;SDS011;5176;42.622;25.386;2023-12-20T09:50:04;7.17;;;6.33;;
9438;SDS011;5176;42.622;25.386;2023-12-20T09:52:32;8.83;;;6.43;;
9438;SDS011;5176;42.622;25.386;2023-12-20T09:55:01;9.30;;;7.10;;
9438;SDS011;5176;42.622;25.386;2023-12-20T09:57:31;16.63;;;8.07;;
9438;SDS011;5176;42.622;25.386;2023-12-20T09:59:58;12.77;;;9.93;;
9438;SDS011;5176;42.622;25.386;2023-12-20T10:02:25;16.50;;;9.57;;
9438;SDS011;5176;42.622;25.386;2023-12-20T10:04:55;12.90;;;9.67;;
9438;SDS011;5176;42.622;25.386;2023-12-20T10:07:22;20.90;;;13.13;;
9438;SDS011;5176;42.622;25.386;2023-12-20T10:09:49;19.00;;;13.07;;
9438;SDS011;5176;42.622;25.386;2023-12-20T10:12:20;15.27;;;11.97;;
9438;SDS011;5176;42.622;25.386;2023-12-20T10:14:48;20.63;;;16.50;;
9438;SDS011;5176;42.622;25.386;2023-12-20T10:17:16;23.23;;;12.10;;
9438;SDS011;5176;42.622;25.386;2023-12-20T10:19:43;17.70;;;13.60;;
9438;SDS011;5176;42.622;25.386;2023-12-20T10:22:12;17.37;;;12.07;;
9438;SDS011;5176;42.622;25.386;2023-12-20T10:24:39;21.83;;;15.20;;
9438;SDS011;5176;42.622;25.386;2023-12-20T10:27:08;17.83;;;13.40;;
9438;SDS011;5176;42.622;25.386;2023-12-20T10:29:36;20.97;;;12.13;;
9438;SDS011;5176;42.622;25.386;2023-12-20T10:32:22;17.87;;;9.87;;
9438;SDS011;5176;42.622;25.386;2023-12-20T10:34:50;19.20;;;11.33;;
9438;SDS011;5176;42.622;25.386;2023-12-20T10:37:20;16.83;;;12.80;;
9438;SDS011;5176;42.622;25.386;2023-12-20T10:39:48;15.13;;;9.90;;
9438;SDS011;5176;42.622;25.386;2023-12-20T10:42:18;13.43;;;9.03;;
9438;SDS011;5176;42.622;25.386;2023-12-20T10:44:47;13.50;;;9.40;;
9438;SDS011;5176;42.622;25.386;2023-12-20T10:47:16;14.90;;;8.90;;
9438;SDS011;5176;42.622;25.386;2023-12-20T10:49:44;16.50;;;9.83;;
9438;SDS011;5176;42.622;25.386;2023-12-20T10:52:12;15.80;;;11.20;;
9438;SDS011;5176;42.622;25.386;2023-12-20T10:54:41;17.27;;;9.33;;
9438;SDS011;5176;42.622;25.386;2023-12-20T10:57:08;15.30;;;8.50;;
9438;SDS011;5176;42.622;25.386;2023-12-20T10:59:36;14.00;;;10.27;;
9438;SDS011;5176;42.622;25.386;2023-12-20T11:02:04;9.43;;;7.50;;
9438;SDS011;5176;42.622;25.386;2023-12-20T11:04:35;12.53;;;7.93;;
9438;SDS011;5176;42.622;25.386;2023-12-20T11:07:08;14.27;;;8.70;;
9438;SDS011;5176;42.622;25.386;2023-12-20T11:09:49;10.60;;;7.30;;
9438;SDS011;5176;42.622;25.386;2023-12-20T11:12:29;11.87;;;7.43;;
9438;SDS011;5176;42.622;25.386;2023-12-20T11:15:04;12.70;;;7.53;;
9438;SDS011;5176;42.622;25.386;2023-12-20T11:17:33;15.00;;;8.03;;
9438;SDS011;5176;42.622;25.386;2023-12-20T11:20:04;12.33;;;7.77;;
9438;SDS011;5176;42.622;25.386;2023-12-20T11:22:33;13.77;;;8.63;;
9438;SDS011;5176;42.622;25.386;2023-12-20T11:25:04;20.07;;;9.13;;
9438;SDS011;5176;42.622;25.386;2023-12-20T11:27:34;16.87;;;11.03;;
9438;SDS011;5176;42.622;25.386;2023-12-20T11:30:03;17.13;;;11.10;;
9438;SDS011;5176;42.622;25.386;2023-12-20T11:32:34;18.90;;;11.53;;
9438;SDS011;5176;42.622;25.386;2023-12-20T11:35:16;34.17;;;20.77;;
9438;SDS011;5176;42.622;25.386;2023-12-20T11:37:45;20.60;;;13.60;;
9438;SDS011;5176;42.622;25.386;2023-12-20T11:40:15;19.93;;;12.33;;
9438;SDS011;5176;42.622;25.386;2023-12-20T11:42:44;21.00;;;11.80;;
9438;SDS011;5176;42.622;25.386;2023-12-20T11:45:15;17.63;;;11.07;;
9438;SDS011;5176;42.622;25.386;2023-12-20T11:47:46;14.43;;;9.73;;
9438;SDS011;5176;42.622;25.386;2023-12-20T11:50:15;28.47;;;13.37;;
9438;SDS011;5176;42.622;25.386;2023-12-20T11:52:42;16.10;;;12.27;;
9438;SDS011;5176;42.622;25.386;2023-12-20T11:55:09;20.80;;;14.07;;
9438;SDS011;5176;42.622;25.386;2023-12-20T11:57:39;16.17;;;11.30;;
9438;SDS011;5176;42.622;25.386;2023-12-20T12:00:07;12.47;;;10.00;;
9438;SDS011;5176;42.622;25.386;2023-12-20T12:02:34;12.80;;;9.43;;
9438;SDS011;5176;42.622;25.386;2023-12-20T12:05:02;19.07;;;9.73;;
9438;SDS011;5176;42.622;25.386;2023-12-20T12:07:30;13.93;;;9.87;;
9438;SDS011;5176;42.622;25.386;2023-12-20T12:09:58;18.63;;;11.97;;
9438;SDS011;5176;42.622;25.386;2023-12-20T12:12:25;19.90;;;11.83;;
9438;SDS011;5176;42.622;25.386;2023-12-20T12:14:54;15.93;;;9.93;;
9438;SDS011;5176;42.622;25.386;2023-12-20T12:17:23;13.00;;;8.13;;
9438;SDS011;5176;42.622;25.386;2023-12-20T12:19:50;12.67;;;10.27;;
9438;SDS011;5176;42.622;25.386;2023-12-20T12:22:28;16.77;;;8.60;;
9438;SDS011;5176;42.622;25.386;2023-12-20T12:24:58;9.10;;;7.30;;
9438;SDS011;5176;42.622;25.386;2023-12-20T12:27:35;8.77;;;7.47;;
9438;SDS011;5176;42.622;25.386;2023-12-20T12:30:06;9.87;;;8.07;;
9438;SDS011;5176;42.622;25.386;2023-12-20T12:32:34;14.00;;;10.33;;
9438;SDS011;5176;42.622;25.386;2023-12-20T12:35:03;12.57;;;8.93;;
9438;SDS011;5176;42.622;25.386;2023-12-20T12:37:31;9.70;;;6.97;;
9438;SDS011;5176;42.622;25.386;2023-12-20T12:40:01;13.87;;;8.17;;
9438;SDS011;5176;42.622;25.386;2023-12-20T12:42:28;13.33;;;10.10;;
9438;SDS011;5176;42.622;25.386;2023-12-20T12:44:55;12.80;;;10.00;;
9438;SDS011;5176;42.622;25.386;2023-12-20T12:47:24;15.10;;;11.57;;
9438;SDS011;5176;42.622;25.386;2023-12-20T12:49:51;14.87;;;8.80;;
9438;SDS011;5176;42.622;25.386;2023-12-20T12:52:19;15.17;;;12.30;;
9438;SDS011;5176;42.622;25.386;2023-12-20T12:54:46;9.70;;;7.87;;
9438;SDS011;5176;42.622;25.386;2023-12-20T12:57:14;11.87;;;9.83;;
9438;SDS011;5176;42.622;25.386;2023-12-20T12:59:42;13.40;;;9.90;;
9438;SDS011;5176;42.622;25.386;2023-12-20T13:02:11;11.17;;;8.67;;
9438;SDS011;5176;42.622;25.386;2023-12-20T13:04:40;16.47;;;12.50;;
9438;SDS011;5176;42.622;25.386;2023-12-20T13:07:08;10.97;;;8.20;;
9438;SDS011;5176;42.622;25.386;2023-12-20T13:09:35;22.37;;;16.67;;
9438;SDS011;5176;42.622;25.386;2023-12-20T13:12:04;19.20;;;13.57;;
9438;SDS011;5176;42.622;25.386;2023-12-20T13:14:32;14.27;;;10.07;;
9438;SDS011;5176;42.622;25.386;2023-12-20T13:17:02;19.67;;;12.00;;
9438;SDS011;5176;42.622;25.386;2023-12-20T13:19:31;12.63;;;9.20;;
9438;SDS011;5176;42.622;25.386;2023-12-20T13:22:00;21.77;;;10.97;;
9438;SDS011;5176;42.622;25.386;2023-12-20T13:24:27;12.67;;;9.67;;
9438;SDS011;5176;42.622;25.386;2023-12-20T13:26:55;19.87;;;14.77;;
9438;SDS011;5176;42.622;25.386;2023-12-20T13:29:22;17.77;;;10.93;;
9438;SDS011;5176;42.622;25.386;2023-12-20T13:31:52;19.73;;;11.40;;
9438;SDS011;5176;42.622;25.386;2023-12-20T13:34:19;20.63;;;12.10;;
9438;SDS011;5176;42.622;25.386;2023-12-20T13:36:47;31.90;;;17.83;;
9438;SDS011;5176;42.622;25.386;2023-12-20T13:39:17;20.03;;;12.83;;
9438;SDS011;5176;42.622;25.386;2023-12-20T13:41:44;16.73;;;11.30;;
9438;SDS011;5176;42.622;25.386;2023-12-20T13:44:12;16.70;;;10.77;;
9438;SDS011;5176;42.622;25.386;2023-12-20T13:46:40;15.30;;;11.03;;
9438;SDS011;5176;42.622;25.386;2023-12-20T13:49:07;13.97;;;10.90;;
9438;SDS011;5176;42.622;25.386;2023-12-20T13:51:35;11.40;;;9.07;;
9438;SDS011;5176;42.622;25.386;2023-12-20T13:54:02;11.33;;;9.30;;
9438;SDS011;5176;42.622;25.386;2023-12-20T13:56:31;15.23;;;9.93;;
9438;SDS011;5176;42.622;25.386;2023-12-20T13:58:59;11.30;;;8.20;;
9438;SDS011;5176;42.622;25.386;2023-12-20T14:01:26;14.47;;;10.20;;
9438;SDS011;5176;42.622;25.386;2023-12-20T14:03:54;14.10;;;9.33;;
9438;SDS011;5176;42.622;25.386;2023-12-20T14:06:21;16.53;;;12.03;;
9438;SDS011;5176;42.622;25.386;2023-12-20T14:08:48;12.17;;;10.10;;
9438;SDS011;5176;42.622;25.386;2023-12-20T14:11:16;16.00;;;11.20;;
9438;SDS011;5176;42.622;25.386;2023-12-20T14:13:45;15.80;;;10.97;;
9438;SDS011;5176;42.622;25.386;2023-12-20T14:16:13;16.43;;;12.60;;
9438;SDS011;5176;42.622;25.386;2023-12-20T14:18:42;14.07;;;10.73;;
9438;SDS011;5176;42.622;25.386;2023-12-20T14:21:09;15.20;;;11.50;;
9438;SDS011;5176;42.622;25.386;2023-12-20T14:23:37;12.60;;;9.17;;
9438;SDS011;5176;42.622;25.386;2023-12-20T14:26:04;18.50;;;13.40;;
9438;SDS011;5176;42.622;25.386;2023-12-20T14:28:31;23.80;;;17.00;;
9438;SDS011;5176;42.622;25.386;2023-12-20T14:31:00;31.67;;;21.40;;
9438;SDS011;5176;42.622;25.386;2023-12-20T14:33:27;23.77;;;16.70;;
9438;SDS011;5176;42.622;25.386;2023-12-20T14:35:55;29.30;;;17.40;;
9438;SDS011;5176;42.622;25.386;2023-12-20T14:38:22;24.83;;;16.73;;
9438;SDS011;5176;42.622;25.386;2023-12-20T14:40:49;24.90;;;15.47;;
9438;SDS011;5176;42.622;25.386;2023-12-20T14:43:17;25.73;;;17.50;;
9438;SDS011;5176;42.622;25.386;2023-12-20T14:45:44;27.47;;;18.63;;
9438;SDS011;5176;42.622;25.386;2023-12-20T14:48:13;24.27;;;17.53;;